Hlavní strana
METAR-TAF:

METAR-TAF

Letiště :

Letiště Vágar

Sørvágur, Faerské ostrovy, Dánsko

zeměpisná šířka: 62-04N, zeměpisná délka: 007-17W, výška: 85 m

Aktuální stav počasí

Zpráva byla vytvořena před 6 minutami, v 11:50 UTC
Východojihovýchodní vítr 2 kt
Teplota 2°C
Vlhkost vzduchu 87%
Tlak 986 hPa
Viditelnost 10 km a více

METAR: EKVG 291150Z AUTO 12002KT 9999 SCT023/// 02/00 Q0986

Čas: 12:56 (11:56 UTC)

Předpověď počasí

Zpráva byla vytvořena před 34 minutami, v 11:22 UTC
Předpověď platná od 29 v 12 UTC do 29 v 21 UTC
Východojihovýchodní vítr 4 kt
Viditelnost 10 km a více
Polojasno ve výšce 2600 ft
Dočasný
od 29 v 12 UTC do 29 v 21 UTC
Oblačno až skoro zataženo ve výšce 1200 ft
slabé dešťové přeháňky, sníh

TAF: EKVG 291122Z 2912/2921 12004KT 9999 SCT026 TEMPO 2912/2921 -SHRASN BKN012

Stav a předpovědi počasí z více než 4 000 letišť (zprávy METAR a TAF).

Červené a žluté tečky na mapě představují dostupné meteorologické stanice.

Když kurzor umístíte na tečku, zobrazí se název stanice.

Pak kliknutím zobrazíte stav a předpověď počasí.

Chcete-li změnit mapu, kliknutím na zelené tlačítko se znaménkem +mapu přiblížíte, kliknutím na zelené tlačítko se znaménkem – mapu oddálíte a kliknutím na zelené šipky přejdete na sousední mapy.


METAR-TAF: